createdAt,value
2019-04-29T00:00:09.517Z,100.0000
2019-04-29T00:02:13.119Z,100.0000
2019-04-29T00:04:16.546Z,100.0000
2019-04-29T00:06:19.988Z,100.0000
2019-04-29T00:08:23.540Z,100.0000
2019-04-29T00:10:26.983Z,100.0000
2019-04-29T00:12:31.073Z,100.0000
2019-04-29T00:14:34.648Z,100.0000
2019-04-29T00:16:38.110Z,100.0000
2019-04-29T00:18:41.886Z,100.0000
2019-04-29T00:20:45.304Z,100.0000
2019-04-29T00:22:48.742Z,100.0000
2019-04-29T00:24:52.166Z,100.0000
2019-04-29T00:26:54.690Z,100.0000
2019-04-29T00:28:58.878Z,100.0000
2019-04-29T00:31:02.906Z,100.0000
2019-04-29T00:33:06.437Z,100.0000
2019-04-29T00:35:09.850Z,100.0000
2019-04-29T00:37:13.383Z,100.0000
2019-04-29T00:39:15.851Z,100.0000
2019-04-29T00:41:19.721Z,100.0000
2019-04-29T00:43:22.609Z,100.0000
2019-04-29T00:45:26.294Z,100.0000
2019-04-29T00:47:29.948Z,100.0000
2019-04-29T00:49:33.703Z,100.0000
2019-04-29T00:51:37.127Z,100.0000
2019-04-29T00:53:40.562Z,100.0000
2019-04-29T00:55:44.437Z,100.0000
2019-04-29T00:57:48.280Z,100.0000
2019-04-29T00:59:51.770Z,100.0000
2019-04-29T01:01:55.202Z,100.0000
2019-04-29T01:03:58.955Z,100.0000
2019-04-29T01:06:03.545Z,100.0000
2019-04-29T01:08:07.454Z,100.0000
2019-04-29T01:10:11.380Z,100.0000
2019-04-29T01:12:14.828Z,100.0000
2019-04-29T01:14:18.376Z,100.0000
2019-04-29T01:16:21.805Z,100.0000
2019-04-29T01:18:25.504Z,100.0000
2019-04-29T01:20:28.989Z,100.0000
2019-04-29T01:22:32.561Z,100.0000
2019-04-29T01:24:35.965Z,100.0000
2019-04-29T01:26:39.725Z,100.0000
2019-04-29T01:28:42.851Z,100.0000
2019-04-29T01:30:47.208Z,100.0000
2019-04-29T01:32:50.781Z,100.0000
2019-04-29T01:34:54.334Z,100.0000
2019-04-29T01:36:58.486Z,100.0000
2019-04-29T01:39:01.907Z,100.0000
2019-04-29T01:41:05.850Z,100.0000
2019-04-29T01:43:09.289Z,100.0000
2019-04-29T01:45:12.676Z,100.0000
2019-04-29T01:47:16.863Z,99.9939
2019-04-29T01:49:20.291Z,100.0000
2019-04-29T01:51:23.212Z,100.0000
2019-04-29T01:53:27.193Z,100.0000
2019-04-29T01:55:30.561Z,100.0000
2019-04-29T01:57:34.530Z,100.0000
2019-04-29T01:59:37.071Z,99.4781
2019-04-29T02:01:41.268Z,99.5239
2019-04-29T02:03:45.136Z,100.0000
2019-04-29T02:05:48.888Z,100.0000
2019-04-29T02:07:52.556Z,100.0000
2019-04-29T02:09:55.975Z,100.0000
2019-04-29T02:11:59.658Z,99.9130
2019-04-29T02:14:03.720Z,100.0000
2019-04-29T02:16:07.282Z,100.0000
2019-04-29T02:18:10.730Z,100.0000
2019-04-29T02:20:14.157Z,100.0000
2019-04-29T02:22:17.682Z,100.0000
2019-04-29T02:24:21.249Z,100.0000
2019-04-29T02:26:24.839Z,100.0000
2019-04-29T02:28:28.326Z,100.0000
2019-04-29T02:30:31.826Z,100.0000
2019-04-29T02:32:35.300Z,100.0000
2019-04-29T02:34:38.768Z,100.0000
2019-04-29T02:36:42.203Z,100.0000
2019-04-29T02:38:44.613Z,100.0000
2019-04-29T02:40:48.405Z,100.0000
2019-04-29T02:42:52.266Z,100.0000
2019-04-29T02:44:56.085Z,100.0000
2019-04-29T02:46:59.688Z,100.0000
2019-04-29T02:49:03.235Z,100.0000
2019-04-29T02:51:06.807Z,100.0000
2019-04-29T02:53:10.305Z,100.0000
2019-04-29T02:55:13.756Z,100.0000
2019-04-29T02:57:17.348Z,100.0000
2019-04-29T02:59:20.894Z,100.0000
2019-04-29T03:01:24.453Z,100.0000
2019-04-29T03:03:28.163Z,100.0000
2019-04-29T03:05:31.672Z,100.0000
2019-04-29T03:07:34.089Z,100.0000
2019-04-29T03:09:37.510Z,100.0000
2019-04-29T03:11:40.195Z,100.0000
2019-04-29T03:13:43.602Z,100.0000
2019-04-29T03:15:46.233Z,100.0000
2019-04-29T03:17:49.643Z,100.0000
2019-04-29T03:19:53.270Z,100.0000
2019-04-29T03:21:57.401Z,100.0000
2019-04-29T03:24:00.821Z,100.0000
2019-04-29T03:26:04.229Z,100.0000
2019-04-29T03:28:07.646Z,100.0000
2019-04-29T03:30:11.073Z,100.0000
2019-04-29T03:32:15.002Z,100.0000
2019-04-29T03:34:18.445Z,100.0000
2019-04-29T03:36:21.887Z,100.0000
2019-04-29T03:38:25.574Z,100.0000
2019-04-29T03:40:29.071Z,100.0000
2019-04-29T03:42:32.490Z,100.0000
2019-04-29T03:44:36.099Z,100.0000
2019-04-29T03:46:39.674Z,100.0000
2019-04-29T03:48:43.030Z,100.0000
2019-04-29T03:50:46.794Z,100.0000
2019-04-29T03:52:49.316Z,100.0000
2019-04-29T03:54:52.863Z,100.0000
2019-04-29T03:56:56.287Z,100.0000
2019-04-29T03:58:59.935Z,100.0000
2019-04-29T04:01:04.160Z,100.0000
2019-04-29T04:03:07.819Z,100.0000
2019-04-29T04:05:11.411Z,100.0000
2019-04-29T04:07:14.838Z,100.0000
2019-04-29T04:09:19.174Z,100.0000
2019-04-29T04:11:22.613Z,100.0000
2019-04-29T04:13:26.059Z,100.0000
2019-04-29T04:15:29.579Z,100.0000
2019-04-29T04:17:33.072Z,100.0000
2019-04-29T04:19:36.512Z,100.0000
2019-04-29T04:21:40.039Z,100.0000
2019-04-29T04:23:43.501Z,100.0000
2019-04-29T04:25:47.645Z,100.0000
2019-04-29T04:27:51.146Z,100.0000
2019-04-29T04:29:54.745Z,100.0000
2019-04-29T04:31:57.284Z,100.0000
2019-04-29T04:33:59.842Z,100.0000
2019-04-29T04:36:03.977Z,100.0000
2019-04-29T04:38:07.877Z,100.0000
2019-04-29T04:40:12.087Z,100.0000
2019-04-29T04:42:15.842Z,100.0000
2019-04-29T04:44:19.400Z,100.0000
2019-04-29T04:46:22.925Z,100.0000
2019-04-29T04:48:26.772Z,100.0000
2019-04-29T04:50:29.294Z,100.0000
2019-04-29T04:52:32.695Z,100.0000
2019-04-29T04:54:36.694Z,100.0000
2019-04-29T04:56:40.879Z,100.0000
2019-04-29T04:58:44.620Z,100.0000
2019-04-29T05:00:48.044Z,100.0000
2019-04-29T05:02:51.451Z,100.0000
2019-04-29T05:04:54.931Z,100.0000
2019-04-29T05:06:58.331Z,100.0000
2019-04-29T05:09:01.838Z,100.0000
2019-04-29T05:11:05.243Z,100.0000
2019-04-29T05:13:08.679Z,100.0000
2019-04-29T05:15:12.249Z,100.0000
2019-04-29T05:17:15.652Z,99.9771
2019-04-29T05:19:19.048Z,99.1699
2019-04-29T05:21:22.956Z,98.8083
2019-04-29T05:23:26.366Z,98.6938
2019-04-29T05:25:28.767Z,98.6038
2019-04-29T05:27:32.790Z,98.3734
2019-04-29T05:29:36.577Z,99.1424
2019-04-29T05:31:40.039Z,99.3774
2019-04-29T05:33:43.128Z,99.0845
2019-04-29T05:35:47.421Z,99.4278
2019-04-29T05:37:51.817Z,99.2615
2019-04-29T05:39:55.233Z,98.3246
2019-04-29T05:41:58.669Z,98.1582
2019-04-29T05:44:02.924Z,96.4340
2019-04-29T05:46:07.675Z,95.7519
2019-04-29T05:48:11.921Z,95.8282
2019-04-29T05:50:16.856Z,94.7707
2019-04-29T05:52:22.269Z,93.2433
2019-04-29T05:54:26.938Z,93.7179
2019-04-29T05:56:34.757Z,93.8232
2019-04-29T05:58:39.645Z,95.0835
2019-04-29T06:00:43.979Z,93.9986
2019-04-29T06:02:47.444Z,95.1064
2019-04-29T06:04:52.421Z,94.1024
2019-04-29T06:06:57.975Z,94.1863
2019-04-29T06:09:02.321Z,91.8654
2019-04-29T06:11:06.416Z,91.8837
2019-04-29T06:13:09.895Z,88.8624
2019-04-29T06:15:13.299Z,87.1412
2019-04-29T06:17:16.836Z,85.1118
2019-04-29T06:19:19.283Z,84.5228
2019-04-29T06:21:23.821Z,88.5634
2019-04-29T06:23:28.141Z,90.4372
2019-04-29T06:25:32.569Z,90.4128
2019-04-29T06:27:36.665Z,89.6910
2019-04-29T06:29:40.202Z,90.6783
2019-04-29T06:31:43.663Z,91.1406
2019-04-29T06:33:48.129Z,92.3644
2019-04-29T06:35:52.789Z,91.1040
2019-04-29T06:37:57.326Z,88.4230
2019-04-29T06:40:01.979Z,88.8670
2019-04-29T06:42:06.257Z,90.6416
2019-04-29T06:44:16.108Z,87.4754
2019-04-29T06:46:18.742Z,88.3818
2019-04-29T06:48:23.349Z,89.9336
2019-04-29T06:50:27.939Z,88.4215
2019-04-29T06:52:32.044Z,90.8797
2019-04-29T06:54:35.475Z,88.4947
2019-04-29T06:56:39.689Z,89.3156
2019-04-29T06:58:43.947Z,88.6610
2019-04-29T07:00:50.716Z,88.7251
2019-04-29T07:02:55.070Z,86.8620
2019-04-29T07:04:59.348Z,87.8508
2019-04-29T07:07:02.764Z,84.4358
2019-04-29T07:09:06.192Z,86.0960
2019-04-29T07:11:11.146Z,86.6133
2019-04-29T07:13:17.933Z,86.3905
2019-04-29T07:15:26.341Z,86.2806
2019-04-29T07:17:29.895Z,86.5324
2019-04-29T07:19:33.798Z,85.0065
2019-04-29T07:21:41.939Z,85.8091
2019-04-29T07:23:46.939Z,86.8238
2019-04-29T07:25:50.359Z,86.6224
2019-04-29T07:27:54.707Z,83.3371
2019-04-29T07:30:01.816Z,75.0835
2019-04-29T07:32:12.071Z,76.4752
2019-04-29T07:34:20.134Z,72.6925
2019-04-29T07:36:23.923Z,75.1476
2019-04-29T07:38:40.586Z,76.1089
2019-04-29T07:40:38.742Z,78.2452
2019-04-29T07:42:48.130Z,81.7517
2019-04-29T07:44:54.145Z,81.9944
2019-04-29T07:47:02.194Z,81.9257
2019-04-29T07:49:08.214Z,82.3652
2019-04-29T07:51:14.674Z,84.4587
2019-04-29T07:53:21.853Z,85.0309
2019-04-29T07:55:30.778Z,85.8900
2019-04-29T07:57:35.924Z,83.8209
2019-04-29T07:59:40.140Z,84.6418
2019-04-29T08:01:44.462Z,84.3168
2019-04-29T08:03:47.880Z,85.4383
2019-04-29T08:05:52.021Z,85.0492
2019-04-29T08:07:56.476Z,84.6647
2019-04-29T08:09:59.942Z,86.0822
2019-04-29T08:12:04.442Z,86.6423
2019-04-29T08:14:09.365Z,83.3783
2019-04-29T08:16:17.134Z,84.4404
2019-04-29T08:18:22.858Z,85.6107
2019-04-29T08:20:27.157Z,83.8590
2019-04-29T08:22:30.504Z,83.5203
2019-04-29T08:24:37.339Z,81.6251
2019-04-29T08:26:47.081Z,80.5951
2019-04-29T08:28:53.063Z,83.3768
2019-04-29T08:31:00.579Z,80.8225
2019-04-29T08:35:19.959Z,84.9699
2019-04-29T08:37:25.671Z,81.8769
2019-04-29T08:39:31.210Z,85.5467
2019-04-29T08:41:34.882Z,82.5589
2019-04-29T08:45:53.936Z,79.2935
2019-04-29T08:47:57.347Z,78.7167
2019-04-29T08:50:01.027Z,74.8058
2019-04-29T08:52:05.725Z,76.0220
2019-04-29T08:54:11.055Z,75.1827
2019-04-29T08:56:14.496Z,73.2036
2019-04-29T08:58:21.847Z,76.2188
2019-04-29T09:00:26.626Z,62.5284
2019-04-29T09:02:34.835Z,68.9097
2019-04-29T09:04:52.904Z,72.8099
2019-04-29T09:06:50.288Z,68.4489
2019-04-29T09:08:59.592Z,59.1089
2019-04-29T09:11:08.244Z,60.7706
2019-04-29T09:17:42.474Z,68.0735
2019-04-29T09:19:46.346Z,70.3563
2019-04-29T09:21:49.755Z,66.6804
2019-04-29T09:26:14.866Z,68.6168
2019-04-29T09:28:22.760Z,67.7256
2019-04-29T09:30:29.240Z,71.1955
2019-04-29T09:32:38.556Z,73.8262
2019-04-29T09:34:44.293Z,78.1262
2019-04-29T09:36:48.371Z,73.5241
2019-04-29T09:38:54.302Z,77.9950
2019-04-29T09:41:01.268Z,75.9335
2019-04-29T09:45:29.021Z,72.8923
2019-04-29T09:47:34.618Z,72.1279
2019-04-29T09:49:39.057Z,72.7703
2019-04-29T09:51:46.023Z,71.7952
2019-04-29T09:53:50.293Z,68.0537
2019-04-29T09:55:54.391Z,59.9298
2019-04-29T09:57:59.282Z,62.3133
2019-04-29T10:00:05.346Z,61.3840
2019-04-29T10:04:28.401Z,65.1850
2019-04-29T10:06:35.864Z,65.3590
2019-04-29T10:08:39.330Z,69.1310
2019-04-29T10:10:42.762Z,64.2328
2019-04-29T10:12:53.928Z,62.9175
2019-04-29T10:19:30.243Z,67.6982
2019-04-29T10:21:34.775Z,68.2918
2019-04-29T10:25:51.446Z,70.4891
2019-04-29T10:27:56.653Z,64.3107
2019-04-29T10:30:01.508Z,67.8111
2019-04-29T10:32:28.225Z,63.7507
2019-04-29T10:41:19.152Z,66.4622
2019-04-29T10:43:24.209Z,61.0590
2019-04-29T10:47:45.432Z,66.8513
2019-04-29T10:49:49.915Z,64.7807
2019-04-29T10:51:53.383Z,60.3052
2019-04-29T10:53:56.884Z,58.8586
2019-04-29T10:56:05.370Z,60.8728
2019-04-29T10:58:09.400Z,60.3037
2019-04-29T11:00:17.059Z,63.4760
2019-04-29T11:02:27.128Z,63.7690
2019-04-29T11:04:31.703Z,60.0397
2019-04-29T11:06:39.165Z,59.9603
2019-04-29T11:08:43.253Z,62.6520
2019-04-29T11:10:47.421Z,61.3245
2019-04-29T11:12:52.374Z,60.2548
2019-04-29T11:14:57.210Z,63.6103
2019-04-29T11:17:01.816Z,59.1516
2019-04-29T11:19:06.593Z,62.8672
2019-04-29T11:21:11.731Z,63.5264
2019-04-29T11:23:18.012Z,60.7248
2019-04-29T11:25:26.252Z,65.7801
2019-04-29T11:27:30.423Z,56.7834
2019-04-29T11:29:35.886Z,60.5020
2019-04-29T11:31:49.114Z,54.7509
2019-04-29T11:33:54.332Z,61.6693
2019-04-29T11:35:59.099Z,61.1185
2019-04-29T11:38:08.690Z,65.1652
2019-04-29T11:40:13.390Z,61.2619
2019-04-29T11:42:21.619Z,63.3616
2019-04-29T11:44:26.639Z,64.8631
2019-04-29T11:46:32.186Z,60.6699
2019-04-29T11:48:35.601Z,62.7634
2019-04-29T11:50:39.721Z,60.4456
2019-04-29T11:52:45.539Z,59.5941
2019-04-29T11:54:49.709Z,63.2380
2019-04-29T11:56:55.447Z,61.8235
2019-04-29T11:58:59.562Z,66.6819
2019-04-29T12:01:04.072Z,63.8346
2019-04-29T12:03:14.466Z,66.7918
2019-04-29T12:05:19.738Z,64.2878
2019-04-29T12:07:32.138Z,64.2283
2019-04-29T12:09:33.513Z,65.2491
2019-04-29T12:11:37.327Z,61.2238
2019-04-29T12:13:40.745Z,63.6316
2019-04-29T12:15:45.030Z,61.9287
2019-04-29T12:17:53.348Z,61.8235
2019-04-29T12:19:57.375Z,63.8331
2019-04-29T12:22:04.692Z,64.2634
2019-04-29T12:24:09.883Z,63.6500
2019-04-29T12:26:18.388Z,66.1219
2019-04-29T12:28:21.943Z,62.5238
2019-04-29T12:30:29.792Z,66.5660
2019-04-29T12:32:38.230Z,65.3712
2019-04-29T12:34:42.475Z,61.7365
2019-04-29T12:36:56.326Z,63.1556
2019-04-29T12:38:56.789Z,64.7944
2019-04-29T12:41:03.773Z,66.2287
2019-04-29T12:43:16.194Z,69.8207
2019-04-29T12:45:20.646Z,65.3315
2019-04-29T12:47:27.748Z,67.3625
2019-04-29T12:49:33.225Z,65.7923
2019-04-29T12:51:42.322Z,68.8426
2019-04-29T12:53:45.504Z,70.9163
2019-04-29T12:55:53.186Z,69.0928
2019-04-29T12:57:56.989Z,69.2348
2019-04-29T13:00:01.401Z,69.5415
2019-04-29T13:02:05.599Z,67.7348
2019-04-29T13:04:10.713Z,71.9631
2019-04-29T13:06:23.514Z,68.1132
2019-04-29T13:08:27.438Z,67.7028
2019-04-29T13:10:30.886Z,68.2567
2019-04-29T13:12:35.398Z,70.8568
2019-04-29T13:14:39.538Z,67.8218
2019-04-29T13:16:44.270Z,70.3166
2019-04-29T13:18:48.882Z,71.6350
2019-04-29T13:21:09.528Z,69.0562
2019-04-29T13:23:17.491Z,68.9647
2019-04-29T13:25:15.553Z,65.7206
2019-04-29T13:27:29.084Z,65.2888
2019-04-29T13:29:36.159Z,70.0175
2019-04-29T13:31:41.931Z,68.8746
2019-04-29T13:33:45.964Z,68.8884
2019-04-29T13:35:54.488Z,70.8934
2019-04-29T13:37:58.695Z,67.2755
2019-04-29T13:40:02.160Z,67.9393
2019-04-29T13:42:09.315Z,70.8232
2019-04-29T13:44:19.556Z,64.9546
2019-04-29T13:46:25.143Z,68.6717
2019-04-29T13:48:30.093Z,66.7231
2019-04-29T13:50:39.495Z,66.5904
2019-04-29T13:52:42.998Z,61.2146
2019-04-29T13:54:47.215Z,62.8672
2019-04-29T13:56:56.633Z,62.3041
2019-04-29T13:59:09.724Z,63.3906
2019-04-29T14:01:22.465Z,65.5406
2019-04-29T14:03:20.423Z,66.4393
2019-04-29T14:05:24.540Z,65.4139
2019-04-29T14:07:28.755Z,68.3513
2019-04-29T14:09:35.054Z,68.5863
2019-04-29T14:11:42.611Z,68.4077
2019-04-29T14:13:48.474Z,69.6620
2019-04-29T14:15:52.826Z,72.1187
2019-04-29T14:17:56.331Z,73.3089
2019-04-29T14:19:59.763Z,72.6238
2019-04-29T14:22:03.191Z,71.7845
2019-04-29T14:24:07.115Z,72.1752
2019-04-29T14:26:10.539Z,71.1391
2019-04-29T14:28:14.063Z,72.4025
2019-04-29T14:30:20.746Z,70.1137
2019-04-29T14:32:34.497Z,71.6701
2019-04-29T14:34:36.765Z,70.2693
2019-04-29T14:36:40.910Z,71.4519
2019-04-29T14:38:45.131Z,68.3009
2019-04-29T14:40:49.408Z,69.8863
2019-04-29T14:42:57.810Z,68.6183
2019-04-29T14:45:02.123Z,66.8193
2019-04-29T14:47:05.704Z,68.0903
2019-04-29T14:49:09.516Z,69.6651
2019-04-29T14:51:14.033Z,68.9754
2019-04-29T14:53:19.460Z,70.9331
2019-04-29T14:55:27.353Z,72.2789
2019-04-29T14:57:31.382Z,71.4824
2019-04-29T14:59:35.327Z,71.5068
2019-04-29T15:01:38.901Z,72.2057
2019-04-29T15:03:46.764Z,72.8710
2019-04-29T15:05:51.027Z,72.9534
2019-04-29T15:07:54.978Z,74.4305
2019-04-29T15:09:58.785Z,74.9615
2019-04-29T15:12:03.783Z,73.3516
2019-04-29T15:14:09.242Z,73.7255
2019-04-29T15:16:13.957Z,74.3526
2019-04-29T15:18:29.376Z,74.9081
2019-04-29T15:20:29.965Z,73.8766
2019-04-29T15:22:36.415Z,73.6614
2019-04-29T15:24:40.913Z,74.6105
2019-04-29T15:26:45.413Z,76.4141
2019-04-29T15:28:49.416Z,76.8093
2019-04-29T15:30:52.898Z,76.1318
2019-04-29T15:32:57.822Z,76.1776
2019-04-29T15:35:03.011Z,75.8785
2019-04-29T15:37:05.822Z,79.2615
2019-04-29T15:39:11.978Z,77.7279
2019-04-29T15:41:17.487Z,80.4898
2019-04-29T15:43:24.545Z,77.4945
2019-04-29T15:45:32.384Z,78.7503
2019-04-29T15:47:41.606Z,78.8830
2019-04-29T15:49:46.992Z,78.9609
2019-04-29T15:51:51.045Z,76.8780
2019-04-29T15:53:55.435Z,78.0072
2019-04-29T15:56:06.686Z,80.3433
2019-04-29T15:58:08.138Z,77.8576
2019-04-29T16:00:21.375Z,77.0245
2019-04-29T16:02:21.184Z,75.5779
2019-04-29T16:04:27.750Z,75.5596
2019-04-29T16:06:39.537Z,75.0729
2019-04-29T16:08:42.781Z,75.3765
2019-04-29T16:10:51.348Z,74.7341
2019-04-29T16:12:56.050Z,73.7896
2019-04-29T16:15:00.252Z,72.5551
2019-04-29T16:17:04.585Z,73.4188
2019-04-29T16:19:10.292Z,70.1930
2019-04-29T16:21:13.994Z,71.5053
2019-04-29T16:23:19.042Z,74.3496
2019-04-29T16:25:23.520Z,74.7738
2019-04-29T16:27:27.570Z,76.5347
2019-04-29T16:29:32.036Z,74.3770
2019-04-29T16:31:35.999Z,75.3948
2019-04-29T16:33:39.445Z,75.0546
2019-04-29T16:35:43.579Z,77.2580
2019-04-29T16:37:47.108Z,78.4466
2019-04-29T16:39:52.895Z,78.9975
2019-04-29T16:42:01.519Z,78.4192
2019-04-29T16:44:05.948Z,78.1689
2019-04-29T16:46:09.951Z,80.7507
2019-04-29T16:48:14.056Z,77.5540
2019-04-29T16:50:17.494Z,77.0047
2019-04-29T16:52:21.647Z,75.8434
2019-04-29T16:54:28.383Z,76.5606
2019-04-29T16:56:33.917Z,75.1476
2019-04-29T16:58:38.965Z,72.3980
2019-04-29T17:00:46.568Z,75.4116
2019-04-29T17:02:52.396Z,76.1913
2019-04-29T17:04:56.708Z,77.1099
2019-04-29T17:07:12.497Z,76.7803
2019-04-29T17:09:09.305Z,76.7483
2019-04-29T17:11:17.577Z,76.5194
2019-04-29T17:13:23.960Z,76.6339
2019-04-29T17:15:28.122Z,79.4766
2019-04-29T17:17:32.246Z,77.0474
2019-04-29T17:19:35.994Z,78.9059
2019-04-29T17:21:39.465Z,80.7187
2019-04-29T17:23:42.879Z,79.8398
2019-04-29T17:25:46.287Z,79.6277
2019-04-29T17:27:49.689Z,81.1566
2019-04-29T17:29:55.534Z,78.7915
2019-04-29T17:32:03.385Z,81.9165
2019-04-29T17:34:08.141Z,81.6159
2019-04-29T17:36:12.682Z,82.6276
2019-04-29T17:38:16.437Z,86.9200
2019-04-29T17:40:20.007Z,87.1580
2019-04-29T17:42:23.476Z,89.1905
2019-04-29T17:44:26.908Z,87.0161
2019-04-29T17:46:31.165Z,87.1305
2019-04-29T17:48:34.609Z,85.8579
2019-04-29T17:50:46.296Z,86.6926
2019-04-29T17:52:47.928Z,87.3564
2019-04-29T17:54:51.718Z,87.8096
2019-04-29T17:57:15.619Z,86.0243
2019-04-29T17:59:06.015Z,85.9815
2019-04-29T18:01:09.380Z,86.0273
2019-04-29T18:03:15.185Z,86.8605
2019-04-29T18:05:19.393Z,85.8763
2019-04-29T18:07:28.259Z,87.1488
2019-04-29T18:09:32.381Z,87.9225
2019-04-29T18:11:49.590Z,88.2292
2019-04-29T18:13:45.870Z,87.1672
2019-04-29T18:16:00.821Z,90.6844
2019-04-29T18:18:00.324Z,88.4733
2019-04-29T18:20:13.457Z,88.5008
2019-04-29T18:22:16.838Z,89.0776
2019-04-29T18:24:21.073Z,86.3294
2019-04-29T18:26:25.803Z,86.7735
2019-04-29T18:28:30.086Z,86.2257
2019-04-29T18:30:37.780Z,86.8208
2019-04-29T18:32:46.617Z,86.6789
2019-04-29T18:34:50.998Z,88.0919
2019-04-29T18:37:00.224Z,90.2174
2019-04-29T18:39:06.020Z,89.8375
2019-04-29T18:41:09.532Z,92.5231
2019-04-29T18:43:15.002Z,92.4971
2019-04-29T18:45:19.310Z,93.1960
2019-04-29T18:47:27.598Z,93.1701
2019-04-29T18:49:33.582Z,93.7835
2019-04-29T18:51:37.587Z,94.8638
2019-04-29T18:53:41.813Z,94.2733
2019-04-29T18:55:46.349Z,93.7606
2019-04-29T18:57:50.357Z,94.5937
2019-04-29T18:59:55.007Z,96.6247
2019-04-29T19:02:00.914Z,97.2259
2019-04-29T19:04:10.163Z,97.5540
2019-04-29T19:06:17.147Z,98.0316
2019-04-29T19:08:23.389Z,98.3383
2019-04-29T19:10:34.538Z,98.5657
2019-04-29T19:12:39.364Z,98.7167
2019-04-29T19:14:47.524Z,98.7808
2019-04-29T19:16:52.795Z,99.0463
2019-04-29T19:19:01.884Z,99.1608
2019-04-29T19:21:06.892Z,99.0066
2019-04-29T19:23:10.970Z,99.2111
2019-04-29T19:25:15.478Z,99.3271
2019-04-29T19:27:19.844Z,99.4736
2019-04-29T19:29:23.949Z,99.5270
2019-04-29T19:31:27.007Z,99.6521
2019-04-29T19:33:37.632Z,99.5651
2019-04-29T19:35:40.725Z,99.6109
2019-04-29T19:37:45.385Z,99.6872
2019-04-29T19:39:52.462Z,99.7147
2019-04-29T19:41:58.514Z,99.6506
2019-04-29T19:44:02.507Z,99.5148
2019-04-29T19:46:06.638Z,99.4492
2019-04-29T19:48:10.856Z,99.4919
2019-04-29T19:50:18.251Z,99.5636
2019-04-29T19:52:28.701Z,99.3851
2019-04-29T19:54:33.252Z,99.4736
2019-04-29T19:56:37.259Z,99.4049
2019-04-29T19:58:41.730Z,99.1623
2019-04-29T20:00:47.216Z,99.1974
2019-04-29T20:02:52.151Z,98.3566
2019-04-29T20:04:58.876Z,97.4594
2019-04-29T20:07:08.716Z,98.4527
2019-04-29T20:09:17.285Z,98.0224
2019-04-29T20:11:31.676Z,97.0504
2019-04-29T20:13:31.695Z,95.9991
2019-04-29T20:15:38.010Z,94.9691
2019-04-29T20:17:47.033Z,95.5230
2019-04-29T20:19:58.700Z,95.6924
2019-04-29T20:22:05.587Z,96.3592
2019-04-29T20:24:15.088Z,96.0433
2019-04-29T20:26:23.786Z,96.3104
2019-04-29T20:28:27.510Z,95.8984
2019-04-29T20:30:34.237Z,97.1710
2019-04-29T20:32:38.780Z,96.8917
2019-04-29T20:34:42.921Z,96.4508
2019-04-29T20:36:47.916Z,96.4324
2019-04-29T20:38:52.148Z,96.1181
2019-04-29T20:40:56.359Z,96.0449
2019-04-29T20:43:00.501Z,96.3561
2019-04-29T20:45:05.400Z,95.8053
2019-04-29T20:47:19.764Z,96.0357
2019-04-29T20:49:18.242Z,96.2219
2019-04-29T20:51:23.284Z,96.2463
2019-04-29T20:53:37.984Z,95.7641
2019-04-29T20:55:41.345Z,95.2697
2019-04-29T20:57:47.842Z,95.6497
2019-04-29T20:59:55.084Z,95.4070
2019-04-29T21:02:11.154Z,95.8053
2019-04-29T21:04:07.458Z,95.3765
2019-04-29T21:06:11.513Z,95.4955
2019-04-29T21:08:18.909Z,95.1049
2019-04-29T21:10:22.802Z,94.8943
2019-04-29T21:12:29.756Z,95.2026
2019-04-29T21:14:37.953Z,95.5169
2019-04-29T21:16:41.954Z,95.6100
2019-04-29T21:18:52.633Z,95.5734
2019-04-29T21:20:55.149Z,95.5962
2019-04-29T21:23:00.811Z,96.4614
2019-04-29T21:25:05.362Z,95.8602
2019-04-29T21:27:08.997Z,95.7412
2019-04-29T21:29:15.848Z,94.5098
2019-04-29T21:31:22.890Z,94.6212
2019-04-29T21:33:26.986Z,95.2163
2019-04-29T21:35:31.335Z,95.2071
2019-04-29T21:37:35.801Z,95.3384
2019-04-29T21:39:39.991Z,95.5261
2019-04-29T21:41:45.765Z,95.3018
2019-04-29T21:43:53.392Z,95.5413
2019-04-29T21:45:59.479Z,94.6792
2019-04-29T21:48:03.699Z,94.6761
2019-04-29T21:50:08.054Z,94.7540
2019-04-29T21:52:12.156Z,95.2255
2019-04-29T21:54:16.625Z,95.4757
2019-04-29T21:56:20.210Z,95.3933
2019-04-29T21:58:24.478Z,95.0607
2019-04-29T22:00:29.095Z,95.5093
2019-04-29T22:02:33.371Z,96.6766
2019-04-29T22:04:38.476Z,97.1801
2019-04-29T22:06:42.632Z,96.5927
2019-04-29T22:08:46.759Z,95.2255
2019-04-29T22:10:50.224Z,95.4940
2019-04-29T22:12:58.466Z,96.0266
2019-04-29T22:15:03.347Z,96.5148
2019-04-29T22:17:07.388Z,96.3958
2019-04-29T22:19:11.458Z,95.7824
2019-04-29T22:21:22.143Z,95.7687
2019-04-29T22:23:25.288Z,95.7824
2019-04-29T22:25:29.704Z,95.1141
2019-04-29T22:27:34.183Z,95.8923
2019-04-29T22:29:42.970Z,96.1532
2019-04-29T22:31:47.012Z,96.8719
2019-04-29T22:33:51.124Z,97.9248
2019-04-29T22:35:55.545Z,97.9980
2019-04-29T22:37:58.989Z,97.0642
2019-04-29T22:40:04.471Z,96.8597
2019-04-29T22:42:08.849Z,97.6059
2019-04-29T22:44:15.141Z,97.4914
2019-04-29T22:46:21.892Z,95.7092
2019-04-29T22:48:26.118Z,96.1715
2019-04-29T22:50:29.513Z,95.9976
2019-04-29T22:52:32.935Z,95.6954
2019-04-29T22:54:37.937Z,95.6695
2019-04-29T22:56:45.604Z,96.5347
2019-04-29T22:58:50.055Z,96.1456
2019-04-29T23:00:54.093Z,96.1624
2019-04-29T23:03:02.227Z,96.3043
2019-04-29T23:05:07.612Z,96.0342
2019-04-29T23:07:10.909Z,95.6680
2019-04-29T23:09:15.047Z,95.9762
2019-04-29T23:11:19.142Z,95.5871
2019-04-29T23:13:22.386Z,95.4498
2019-04-29T23:15:26.539Z,95.6466
2019-04-29T23:17:30.559Z,95.7519
2019-04-29T23:19:34.115Z,97.4853
2019-04-29T23:21:43.292Z,98.0453
2019-04-29T23:23:47.741Z,97.7462
2019-04-29T23:25:52.128Z,96.5469
2019-04-29T23:27:56.374Z,97.5006
2019-04-29T23:30:00.878Z,98.0117
2019-04-29T23:32:08.162Z,98.4298
2019-04-29T23:34:13.026Z,98.4619
2019-04-29T23:36:16.433Z,98.6038
2019-04-29T23:38:20.733Z,98.6343
2019-04-29T23:40:24.938Z,98.9746
2019-04-29T23:42:29.335Z,99.3027
2019-04-29T23:44:33.387Z,99.5056
2019-04-29T23:46:37.544Z,99.6277
2019-04-29T23:48:41.595Z,99.6460
2019-04-29T23:50:45.479Z,99.5285
2019-04-29T23:52:51.839Z,99.2035
2019-04-29T23:54:56.275Z,98.6908
2019-04-29T23:57:00.679Z,98.3383
2019-04-29T23:59:05.565Z,98.3047
